This is the latest recevied weather packets stored in our database for station/object W0BJ. If no packets are shown the sender has not sent any weather packets the latest 1 day(s).
| Time | Temp. | Humidity | Pressure | Rain* | Wind** | Luminosity | Snow |
|---|---|---|---|---|---|---|---|
| 1778010144 | 8.89° C | 86% | 1014 hPa | 1.27 mm | 2.24 m/s, 357° | - | - |
| 1778009898 | 9.44° C | 85% | 1013.9 hPa | 1.52 mm | 2.24 m/s, 23° | - | - |
| 1778009544 | 9.44° C | 86% | 1014.2 hPa | 1.02 mm | 0.89 m/s, 347° | - | - |
| 1778008997 | 8.89° C | 84% | 1014.2 hPa | 1.27 mm | 0.89 m/s, 340° | - | - |
| 1778008943 | 8.89° C | 84% | 1014.2 hPa | 1.27 mm | 2.24 m/s, 342° | - | - |
| 1778008343 | 9.44° C | 84% | 1014.2 hPa | 2.03 mm | 1.34 m/s, 355° | - | - |
| 1778008097 | 9.44° C | 83% | 1014.2 hPa | 2.29 mm | 0 m/s | - | - |
| 1778007745 | 9.44° C | 83% | 1014 hPa | 2.29 mm | 0.89 m/s, 18° | - | - |
| 1778007199 | 9.44° C | 83% | 1013.8 hPa | 2.03 mm | 0.45 m/s, 358° | - | - |
| 1778007145 | 9.44° C | 83% | 1013.8 hPa | 2.03 mm | 0 m/s | - | - |
| 1778006545 | 10° C | 81% | 1013.5 hPa | 2.03 mm | 0.45 m/s, 18° | - | - |
| 1778006299 | 10° C | 80% | 1013.6 hPa | 1.78 mm | 0 m/s | - | - |
| 1778005951 | 10° C | 79% | 1013.9 hPa | 1.78 mm | 0.45 m/s, 358° | - | - |
| 1778005398 | 10.56° C | 79% | 1013.8 hPa | 1.27 mm | 0.45 m/s, 356° | - | - |
| 1778005344 | 10.56° C | 79% | 1013.8 hPa | 1.27 mm | 0.45 m/s, 320° | - | - |
| 1778004744 | 11.11° C | 76% | 1013.7 hPa | 0.51 mm | 0.45 m/s, 357° | - | - |
| 1778004498 | 11.11° C | 74% | 1013.8 hPa | 0.25 mm | 1.34 m/s, 14° | - | - |
| 1778004144 | 11.67° C | 72% | 1013.9 hPa | 0.25 mm | 2.24 m/s, 353° | - | - |
| 1778003598 | 12.22° C | 70% | 1014.4 hPa | 0.25 mm | 0 m/s | - | - |
| 1778003544 | 12.22° C | 70% | 1014.4 hPa | 0.25 mm | 0.45 m/s, 346° | - | - |
| 1778002945 | 12.22° C | 67% | 1014.2 hPa | 0 mm | 0 m/s | - | - |
| 1778002698 | 12.78° C | 66% | 1014 hPa | 0 mm | 1.34 m/s, 0° | - | - |
| 1778002344 | 12.78° C | 67% | 1014.3 hPa | 0 mm | 0.89 m/s, 352° | - | - |
| 1778001798 | 12.78° C | 69% | 1013.9 hPa | 0 mm | 1.34 m/s, 298° | - | - |
| 1778001744 | 12.78° C | 70% | 1013.8 hPa | 0 mm | 0.45 m/s, 297° | - | - |
* Rain latest hour (hover to see other rain measurements)
** Current wind speed in m/s (hover to see current wind gust speed)